Time;durP1;ratioP1;P1;durP2;ratioP2;P2;SDS_P1;SDS_P2;PMS_P1;PMS_P2;Temp;Humidity;BMP_temperature;BMP_pressure;BME280_temperature;BME280_humidity;BME280_pressure;Samples;Min_cycle;Max_cycle;Signal;HPM_P1;HPM_P2
2022/12/02 00:02:16;;;;;;;17.73;10.70;;;;;;;10.56;57.11;101037.09;4974520;28;20038;-84
2022/12/02 00:05:13;;;;;;;20.52;11.15;;;;;;;10.15;58.45;101032.53;4977439;28;20054;-83
2022/12/02 00:08:15;;;;;;;22.52;10.10;;;;;;;10.15;58.76;101032.53;4979492;28;20038;-83
2022/12/02 00:11:05;;;;;;;20.75;11.35;;;;;;;10.28;58.29;101029.00;4977104;28;20047;-83
2022/12/02 00:14:00;;;;;;;17.67;10.02;;;;;;;10.31;58.02;101019.41;4979623;28;20042;-83
2022/12/02 00:16:48;;;;;;;16.92;10.70;;;;;;;10.28;58.48;101020.84;4968176;28;20042;-80
2022/12/02 00:19:35;;;;;;;16.52;10.48;;;;;;;10.22;58.06;101024.78;4971785;28;20047;-83
2022/12/02 00:22:23;;;;;;;18.73;10.43;;;;;;;10.12;58.86;101024.16;4972570;28;20495;-82
2022/12/02 00:25:11;;;;;;;19.55;10.38;;;;;;;9.93;58.78;101024.28;4979779;28;20402;-84
2022/12/02 00:28:00;;;;;;;18.75;9.52;;;;;;;9.95;59.55;101024.81;4982651;28;20057;-83
2022/12/02 00:30:50;;;;;;;18.77;10.25;;;;;;;9.99;59.80;101020.38;4989062;28;20069;-83
2022/12/02 00:33:38;;;;;;;17.52;10.57;;;;;;;9.87;60.63;101017.34;4988362;28;20058;-83
2022/12/02 00:36:28;;;;;;;17.02;10.57;;;;;;;10.04;59.20;101019.47;4995419;28;20567;-84
2022/12/02 00:39:18;;;;;;;20.25;10.48;;;;;;;9.96;59.32;101023.69;4961120;28;20054;-82
2022/12/02 00:42:06;;;;;;;21.83;9.48;;;;;;;9.94;59.45;101019.66;4976688;28;20054;-83
2022/12/02 00:48:05;;;;;;;10.90;6.40;;;;;;;10.02;59.28;101022.47;4965000;28;20542;-84
2022/12/02 00:50:54;;;;;;;16.77;7.72;;;;;;;10.01;59.68;101020.03;4988384;28;20105;-84
2022/12/02 00:53:43;;;;;;;16.83;8.13;;;;;;;10.03;58.46;101012.41;4999112;28;20058;-84
2022/12/02 00:56:34;;;;;;;18.85;5.88;;;;;;;10.20;57.53;101013.44;4970739;28;20066;-83
2022/12/02 00:59:21;;;;;;;4.97;3.03;;;;;;;10.47;56.14;101017.16;4979245;28;20058;-84
2022/12/02 01:02:12;;;;;;;1.98;1.50;;;;;;;10.51;55.44;101015.47;4963339;28;20046;-84
2022/12/02 01:05:00;;;;;;;2.80;1.52;;;;;;;10.54;55.22;101017.56;5008341;22;20050;-82
2022/12/02 01:07:45;;;;;;;1.15;1.00;;;;;;;10.64;55.19;101020.84;4993805;28;20058;-82
2022/12/02 01:10:30;;;;;;;1.50;0.90;;;;;;;10.63;54.95;101015.69;4985107;28;20045;-82
2022/12/02 01:13:15;;;;;;;1.10;0.88;;;;;;;10.70;54.75;101021.53;4997933;28;20050;-82
2022/12/02 01:16:00;;;;;;;1.42;0.98;;;;;;;10.59;55.26;101023.69;4973830;28;20045;-82
2022/12/02 01:18:46;;;;;;;1.25;1.00;;;;;;;10.61;55.45;101026.91;4982280;28;20050;-81
2022/12/02 01:21:32;;;;;;;1.33;1.00;;;;;;;10.52;55.58;101025.19;4965457;28;20050;-82
2022/12/02 01:24:17;;;;;;;1.55;1.02;;;;;;;10.71;54.78;101028.59;4970983;28;20057;-84
2022/12/02 01:27:01;;;;;;;1.15;1.02;;;;;;;10.76;55.02;101031.19;4969741;28;20406;-84
2022/12/02 01:29:45;;;;;;;1.80;1.13;;;;;;;10.54;55.73;101018.38;4981450;28;20058;-84
2022/12/02 01:32:30;;;;;;;1.30;1.20;;;;;;;10.61;55.58;101028.81;4958827;29;20043;-84
2022/12/02 01:35:16;;;;;;;1.92;1.13;;;;;;;10.73;55.00;101027.16;4969807;28;20449;-84
2022/12/02 01:38:02;;;;;;;1.05;0.90;;;;;;;10.66;55.53;101028.72;4980420;28;20050;-84
2022/12/02 01:40:48;;;;;;;0.93;0.73;;;;;;;10.64;55.46;101023.56;4980690;28;20049;-84
2022/12/02 01:43:33;;;;;;;1.17;0.77;;;;;;;10.69;55.70;101036.25;4981742;28;20054;-82
2022/12/02 01:46:18;;;;;;;1.48;0.95;;;;;;;10.73;55.77;101034.50;4983508;28;20053;-83
2022/12/02 01:49:03;;;;;;;1.48;0.70;;;;;;;10.60;55.75;101033.47;4982240;28;20049;-83
2022/12/02 01:51:48;;;;;;;;;;;;;;;10.58;56.39;101034.84;4980624;28;20046;-84
2022/12/02 01:54:34;;;;;;;1.88;0.90;;;;;;;10.51;56.20;101029.06;4987104;28;19913;-84
2022/12/02 01:57:25;;;;;;;1.33;1.10;;;;;;;10.60;56.48;101035.38;4970444;28;20054;-83
2022/12/02 02:00:12;;;;;;;1.65;0.93;;;;;;;10.43;56.76;101032.50;4974244;28;20041;-84
2022/12/02 02:02:57;;;;;;;1.48;0.90;;;;;;;10.42;56.69;101036.31;4982717;28;20054;-84
2022/12/02 02:05:42;;;;;;;;;;;;;;;10.44;56.76;101031.38;5011237;28;20045;-83
2022/12/02 02:08:27;;;;;;;1.48;1.00;;;;;;;10.47;56.88;101033.47;5012721;28;19914;-82
2022/12/02 02:11:12;;;;;;;0.50;0.47;;;;;;;10.53;56.55;101032.25;4999489;28;20045;-83
2022/12/02 02:13:58;;;;;;;1.15;0.90;;;;;;;10.47;57.11;101031.56;4980686;28;20050;-83
2022/12/02 02:16:43;;;;;;;1.10;0.98;;;;;;;10.55;56.95;101022.69;4981619;28;20049;-84
2022/12/02 02:19:28;;;;;;;;;;;;;;;10.48;56.83;101029.66;4984117;28;20070;-82
2022/12/02 02:22:20;;;;;;;0.90;0.80;;;;;;;10.48;56.76;101026.94;4980767;28;19919;-82
2022/12/02 02:25:12;;;;;;;1.63;1.10;;;;;;;10.47;57.70;101025.31;4995796;28;20049;-82
2022/12/02 02:27:59;;;;;;;0.93;0.60;;;;;;;10.52;56.81;101017.03;4998133;28;20045;-81
2022/12/02 02:30:44;;;;;;;1.42;0.80;;;;;;;10.44;57.26;101012.34;4979046;28;20062;-82
2022/12/02 02:33:31;;;;;;;0.65;0.52;;;;;;;10.35;57.38;101016.91;4959489;28;20050;-82
2022/12/02 02:36:16;;;;;;;0.55;0.52;;;;;;;10.36;57.04;101010.38;4969573;28;20057;-82
2022/12/02 02:39:01;;;;;;;0.90;0.50;;;;;;;10.29;57.87;101013.50;4983882;28;20062;-81
2022/12/02 02:41:46;;;;;;;0.60;0.60;;;;;;;10.20;56.99;101009.91;4976247;28;20402;-82
2022/12/02 02:44:31;;;;;;;1.08;0.73;;;;;;;10.31;57.21;101011.25;4979209;28;20053;-81
2022/12/02 02:47:16;;;;;;;0.60;0.60;;;;;;;10.31;56.87;101013.22;4979111;28;20046;-82
2022/12/02 02:50:01;;;;;;;0.80;0.60;;;;;;;10.27;57.12;101010.28;4982704;28;20065;-81
2022/12/02 02:52:46;;;;;;;1.80;0.73;;;;;;;10.33;58.01;101005.53;4977806;28;20049;-82
2022/12/02 02:55:33;;;;;;;1.75;0.50;;;;;;;10.33;56.58;101010.97;5003074;28;20050;-82
2022/12/02 02:58:23;;;;;;;0.52;0.52;;;;;;;10.34;56.74;101004.44;5001618;28;20049;-82
2022/12/02 03:01:17;;;;;;;2.05;0.93;;;;;;;10.30;57.65;101004.25;4982126;28;20054;-81
2022/12/02 03:04:08;;;;;;;0.77;0.40;;;;;;;10.52;56.22;101006.97;4982955;28;20057;-82
2022/12/02 03:06:55;;;;;;;1.17;0.80;;;;;;;10.57;55.92;101006.06;4998298;28;20046;-81
2022/12/02 03:09:40;;;;;;;1.38;0.75;;;;;;;10.44;56.55;101001.47;4982369;28;20046;-83
2022/12/02 03:12:26;;;;;;;1.05;0.60;;;;;;;10.24;57.54;100998.13;4964165;28;20046;-81
2022/12/02 03:15:10;;;;;;;1.08;0.63;;;;;;;10.29;57.52;100999.91;4978074;28;20086;-80
2022/12/02 03:17:56;;;;;;;0.52;0.30;;;;;;;10.30;57.01;101004.25;4981439;28;20386;-82
2022/12/02 03:20:41;;;;;;;1.73;0.60;;;;;;;10.44;56.70;101002.28;4995102;28;20046;-84
2022/12/02 03:23:27;;;;;;;0.50;0.40;;;;;;;10.40;56.29;100998.56;4996608;28;20045;-83
2022/12/02 03:26:14;;;;;;;0.80;0.80;;;;;;;10.41;56.30;101002.09;5000884;28;20053;-82
2022/12/02 03:29:00;;;;;;;0.57;0.57;;;;;;;10.22;56.79;101003.03;4997061;28;20042;-83
2022/12/02 03:31:45;;;;;;;1.50;0.70;;;;;;;10.20;57.33;101002.56;4967528;28;20045;-82
2022/12/02 03:34:30;;;;;;;0.70;0.57;;;;;;;10.24;57.18;100994.59;4981783;28;20418;-81
2022/12/02 03:37:15;;;;;;;0.43;0.40;;;;;;;10.19;57.59;101005.56;4959657;29;20054;-82
2022/12/02 03:40:01;;;;;;;0.40;0.40;;;;;;;10.20;56.91;101002.56;4972516;28;20050;-82
2022/12/02 03:42:46;;;;;;;0.68;0.55;;;;;;;10.38;56.81;101002.69;4980703;28;20045;-81
2022/12/02 03:45:32;;;;;;;0.50;0.47;;;;;;;10.32;56.76;100999.28;4973981;28;20517;-82
2022/12/02 03:48:20;;;;;;;0.60;0.60;;;;;;;10.40;57.04;101003.22;4972231;28;20062;-82
2022/12/02 03:51:06;;;;;;;0.70;0.70;;;;;;;10.39;56.87;101013.28;4973166;28;20046;-82
2022/12/02 03:53:51;;;;;;;0.52;0.50;;;;;;;10.42;56.82;100998.25;4980182;28;20422;-82
2022/12/02 03:56:40;;;;;;;0.35;0.30;;;;;;;10.41;56.73;100997.47;5007661;28;20053;-82
2022/12/02 03:59:26;;;;;;;0.82;0.82;;;;;;;10.29;56.80;100989.84;4983452;28;20553;-82
2022/12/02 04:02:11;;;;;;;2.17;0.70;;;;;;;10.35;56.79;100987.00;4977617;28;20062;-81
2022/12/02 04:04:56;;;;;;;;;;;;;;;10.21;57.09;100993.28;4978881;28;20053;-81
2022/12/02 04:07:41;;;;;;;1.30;0.80;;;;;;;10.20;57.37;100986.25;4980905;28;19914;-81
2022/12/02 04:10:26;;;;;;;1.73;0.90;;;;;;;10.34;56.78;100988.13;4994117;28;20053;-81
2022/12/02 04:13:11;;;;;;;0.70;0.43;;;;;;;10.47;56.45;100984.53;4986510;28;20046;-80
2022/12/02 04:15:55;;;;;;;0.75;0.50;;;;;;;10.37;56.62;100990.22;4976541;28;20057;-83
2022/12/02 04:18:40;;;;;;;0.55;0.40;;;;;;;10.44;56.91;100985.16;4996981;28;20049;-83
2022/12/02 04:21:25;;;;;;;0.30;0.30;;;;;;;10.31;57.32;100986.81;4997436;28;20422;-82
2022/12/02 04:24:10;;;;;;;0.75;0.55;;;;;;;10.42;57.04;100982.75;4984937;28;20054;-83
2022/12/02 04:26:55;;;;;;;0.43;0.43;;;;;;;10.24;58.27;100987.25;4977533;28;20046;-83
2022/12/02 04:29:40;;;;;;;;;;;;;;;10.23;57.77;100982.91;4985428;28;20050;-81
2022/12/02 04:32:24;;;;;;;0.95;0.70;;;;;;;10.28;57.47;100982.81;5015012;28;19914;-81
2022/12/02 04:35:09;;;;;;;0.65;0.50;;;;;;;10.19;58.02;100986.56;4992940;28;20045;-80
2022/12/02 04:37:55;;;;;;;2.38;0.70;;;;;;;10.28;57.56;100985.50;4979261;28;20418;-82
2022/12/02 04:40:40;;;;;;;;;;;;;;;10.19;57.96;100984.63;4978223;28;20054;-82
2022/12/02 04:43:24;;;;;;;0.82;0.60;;;;;;;10.14;57.55;100981.19;4980029;28;19918;-81
2022/12/02 04:46:08;;;;;;;1.60;1.17;;;;;;;10.18;57.50;100980.31;4979573;28;20057;-81
2022/12/02 04:48:53;;;;;;;;;;;;;;;10.23;57.48;100982.91;4991863;28;20446;-80
2022/12/02 04:51:37;;;;;;;;;;;;;;;10.19;57.63;100983.84;4978235;28;19928;-80
2022/12/02 04:54:22;;;;;;;;;;;;;;;10.32;57.10;100979.44;4984293;28;19914;-80
2022/12/02 04:57:06;;;;;;;;;;;;;;;10.39;56.70;100982.56;4977408;28;19918;-80
2022/12/02 04:59:51;;;;;;;;;;;;;;;10.36;57.20;100985.91;4979576;28;19914;-80
2022/12/02 05:02:36;;;;;;;;;;;;;;;10.38;56.92;100986.38;4975445;28;19937;-79
2022/12/02 05:05:20;;;;;;;;;;;;;;;10.20;58.01;100993.59;4984234;28;19914;-80
2022/12/02 05:08:04;;;;;;;;;;;;;;;9.91;58.93;100982.22;4981511;28;19915;-80
2022/12/02 05:10:49;;;;;;;;;;;;;;;9.76;59.36;100986.06;4987267;28;19914;-80
2022/12/02 05:13:33;;;;;;;;;;;;;;;9.95;58.73;100989.50;4986944;28;19914;-80
2022/12/02 05:16:18;;;;;;;;;;;;;;;9.91;58.59;100982.22;4978284;28;19914;-79
2022/12/02 05:19:02;;;;;;;;;;;;;;;9.94;58.97;100978.91;4980100;28;19914;-80
2022/12/02 05:21:47;;;;;;;;;;;;;;;10.03;58.46;100980.63;4977915;28;20326;-82
2022/12/02 05:24:31;;;;;;;;;;;;;;;10.05;57.95;100972.97;4971956;28;19922;-83
2022/12/02 05:27:16;;;;;;;;;;;;;;;10.04;57.97;100976.00;4983861;28;19917;-83
2022/12/02 05:30:00;;;;;;;;;;;;;;;9.85;57.93;100949.75;4982556;28;19922;-82
2022/12/02 05:32:46;;;;;;;;;;;;;;;10.00;58.07;100978.53;4985224;28;19915;-84
2022/12/02 05:35:30;;;;;;;;;;;;;;;10.00;57.93;100967.66;4982906;28;19914;-81
2022/12/02 05:38:15;;;;;;;;;;;;;;;10.03;58.05;100974.38;4983181;28;19913;-82
2022/12/02 05:40:59;;;;;;;;;;;;;;;9.94;58.23;100968.88;4981413;28;20312;-81
2022/12/02 05:43:44;;;;;;;;;;;;;;;9.72;58.79;100976.94;4983992;28;19918;-81
2022/12/02 05:46:28;;;;;;;;;;;;;;;9.50;59.70;100974.91;4980969;28;19914;-81
2022/12/02 05:49:15;;;;;;;;;;;;;;;9.45;59.85;100981.25;4994547;28;19914;-81
2022/12/02 05:52:02;;;;;;;;;;;;;;;9.44;59.83;100985.09;4989961;28;19921;-81
2022/12/02 05:54:47;;;;;;;;;;;;;;;9.49;59.51;100986.09;4982743;28;19914;-81
2022/12/02 05:57:31;;;;;;;;;;;;;;;9.79;58.12;100988.19;4980599;28;20312;-79
2022/12/02 06:00:19;;;;;;;;;;;;;;;9.95;57.88;100999.56;4984199;28;19918;-81
2022/12/02 06:03:05;;;;;;;;;;;;;;;9.83;58.35;100997.34;4981815;28;19918;-82
2022/12/02 06:05:49;;;;;;;;;;;;;;;9.94;58.01;100997.94;4979855;28;20001;-81
2022/12/02 06:08:34;;;;;;;;;;;;;;;9.85;58.40;101000.56;4985708;28;20289;-84
2022/12/02 06:11:25;;;;;;;;;;;;;;;9.93;58.01;100999.84;4981813;28;19914;-83
2022/12/02 06:14:14;;;;;;;;;;;;;;;9.82;58.18;101001.16;4978011;28;19914;-83
2022/12/02 06:17:00;;;;;;;;;;;;;;;9.80;58.30;101006.09;4973304;28;20309;-84
2022/12/02 06:19:52;;;;;;;;;;;;;;;9.82;57.98;100995.72;4976300;28;20301;-82
2022/12/02 06:22:37;;;;;;;;;;;;;;;9.72;58.28;101007.59;4990168;28;19922;-82
2022/12/02 06:25:23;;;;;;;;;;;;;;;9.69;58.36;101001.97;4973451;28;19914;-80
2022/12/02 06:28:19;;;;;;;;;;;;;;;9.75;58.10;101008.94;4977950;28;19914;-79
2022/12/02 06:43:29;;;;;;;;;;;;;;;9.70;58.32;101006.31;5075529;28;20377;-81
2022/12/02 06:46:18;;;;;;;;;;;;;;;9.71;58.01;101014.13;5100908;22;19924;-81
2022/12/02 06:52:55;;;;;;;;;;;;;;;9.65;58.40;101011.84;5079399;28;19920;-83
2022/12/02 06:55:40;;;;;;;;;;;;;;;9.66;58.38;101013.44;5074331;28;19917;-84
2022/12/02 07:02:45;;;;;;;;;;;;;;;9.72;58.62;101026.59;5072761;28;19916;-86
2022/12/02 07:05:30;;;;;;;;;;;;;;;9.85;57.91;101020.34;5054552;28;19917;-85
2022/12/02 07:08:24;;;;;;;;;;;;;;;9.85;58.28;101023.06;5062454;28;19917;-85
2022/12/02 07:11:20;;;;;;;;;;;;;;;9.91;58.01;101031.13;5063614;28;19921;-87
2022/12/02 07:14:06;;;;;;;;;;;;;;;9.66;59.90;101035.16;5062351;28;19917;-85
2022/12/02 07:16:55;;;;;;;;;;;;;;;9.66;59.33;101040.56;5071184;28;19916;-87
2022/12/02 07:19:44;;;;;;;;;;;;;;;9.51;59.84;101036.25;5062486;28;19916;-83
2022/12/02 07:22:32;;;;;;;;;;;;;;;9.51;60.15;101035.44;5061419;28;19917;-83
2022/12/02 07:25:16;;;;;;;;;;;;;;;9.45;59.71;101040.16;5050433;28;19917;-78
2022/12/02 07:28:07;;;;;;;;;;;;;;;9.31;60.70;101037.41;5051099;28;19921;-83
2022/12/02 07:30:55;;;;;;;;;;;;;;;9.30;60.41;101041.25;5052517;28;20328;-82
2022/12/02 07:33:39;;;;;;;;;;;;;;;9.30;60.71;101035.00;5046825;28;19917;-81
2022/12/02 07:36:24;;;;;;;;;;;;;;;9.35;60.48;101043.06;5064506;28;19916;-83
2022/12/02 07:39:09;;;;;;;;;;;;;;;9.36;60.36;101039.25;5061926;28;19917;-83
2022/12/02 07:41:57;;;;;;;;;;;;;;;9.38;60.43;101037.84;5057927;28;19917;-82
2022/12/02 07:44:43;;;;;;;;;;;;;;;9.39;60.08;101042.19;5043362;28;19917;-82
2022/12/02 07:47:31;;;;;;;;;;;;;;;9.29;61.16;101042.38;5049208;28;19913;-81
2022/12/02 07:50:15;;;;;;;;;;;;;;;9.13;62.10;101049.16;5042287;28;19917;-82
2022/12/02 07:53:00;;;;;;;;;;;;;;;9.22;61.89;101041.13;5045154;28;19921;-82
2022/12/02 07:55:45;;;;;;;;;;;;;;;9.18;62.10;101042.81;5031913;28;19917;-82
2022/12/02 07:58:30;;;;;;;;;;;;;;;9.14;62.40;101050.75;5028307;28;19917;-83
2022/12/02 08:01:14;;;;;;;;;;;;;;;9.07;62.56;101044.91;5031600;28;19917;-81
2022/12/02 08:03:59;;;;;;;;;;;;;;;9.11;62.24;101050.53;5028744;28;19917;-82
2022/12/02 08:06:43;;;;;;;;;;;;;;;9.07;62.49;101050.34;5036962;28;20300;-81
2022/12/02 08:09:27;;;;;;;;;;;;;;;8.99;62.77;101051.00;5040338;28;19917;-83
2022/12/02 08:12:12;;;;;;;;;;;;;;;8.94;62.72;101048.34;5030963;28;19925;-81
2022/12/02 08:14:56;;;;;;;;;;;;;;;8.97;63.33;101055.91;5057477;28;19916;-82
2022/12/02 08:17:41;;;;;;;;;;;;;;;9.05;63.14;101049.81;5050633;28;20293;-81
2022/12/02 08:20:27;;;;;;;;;;;;;;;9.06;63.25;101046.00;5057229;28;19916;-81
2022/12/02 08:23:13;;;;;;;;;;;;;;;9.04;63.56;101048.19;5067730;28;19916;-81
2022/12/02 08:25:57;;;;;;;;;;;;;;;9.13;62.65;101048.34;5043636;28;19916;-80
2022/12/02 08:28:42;;;;;;;;;;;;;;;8.93;63.80;101050.28;5039517;28;20377;-81
2022/12/02 08:31:27;;;;;;;;;;;;;;;9.14;63.41;101056.19;5065433;28;20426;-81
2022/12/02 08:34:11;;;;;;;;;;;;;;;9.05;64.71;101057.13;5050192;28;19917;-84
2022/12/02 08:36:56;;;;;;;;;;;;;;;9.24;63.61;101061.44;5041658;28;20470;-81
2022/12/02 08:39:40;;;;;;;;;;;;;;;9.28;63.17;101065.16;5044130;28;19917;-82
2022/12/02 08:42:25;;;;;;;;;;;;;;;9.36;63.63;101060.94;5047513;28;19917;-80
2022/12/02 08:45:10;;;;;;;;;;;;;;;9.43;62.80;101061.38;5054082;28;19917;-86
2022/12/02 08:47:54;;;;;;;;;;;;;;;9.28;63.02;101061.66;5046200;28;19917;-82
2022/12/02 08:50:39;;;;;;;;;;;;;;;9.38;63.25;101065.00;5046004;28;20316;-84
2022/12/02 08:53:24;;;;;;;;;;;;;;;9.52;63.07;101069.63;5049214;28;19921;-83
2022/12/02 08:56:08;;;;;;;;;;;;;;;9.47;62.43;101067.00;5034837;28;20293;-84
2022/12/02 08:58:52;;;;;;;;;;;;;;;9.58;62.54;101071.97;5031235;28;19917;-86
2022/12/02 09:01:37;;;;;;;;;;;;;;;9.64;62.08;101072.69;5046410;28;19917;-84
2022/12/02 09:04:22;;;;;;;;;;;;;;;9.71;62.05;101078.50;5046167;28;19917;-84
2022/12/02 09:07:06;;;;;;;;;;;;;;;9.83;61.46;101074.19;5028959;28;19917;-86
2022/12/02 09:09:50;;;;;;;;;;;;;;;9.73;61.00;101070.88;5038860;28;19917;-86
2022/12/02 09:12:35;;;;;;;;;;;;;;;9.87;61.08;101068.97;5045843;28;20404;-84
2022/12/02 09:15:20;;;;;;;;;;;;;;;10.11;60.98;101077.69;5045185;28;19917;-82
2022/12/02 09:18:04;;;;;;;;;;;;;;;10.17;60.42;101081.97;5044907;28;19917;-85
2022/12/02 09:20:49;;;;;;;;;;;;;;;10.06;60.85;101085.94;5046652;28;19917;-86
2022/12/02 09:23:33;;;;;;;;;;;;;;;9.70;62.67;101082.34;5041910;28;19921;-85
2022/12/02 09:26:18;;;;;;;;;;;;;;;9.86;62.01;101078.22;5037642;28;19917;-85
2022/12/02 09:29:02;;;;;;;;;;;;;;;9.89;62.49;101080.34;5039745;28;19917;-84
2022/12/02 09:31:47;;;;;;;;;;;;;;;9.68;62.55;101082.63;5032652;28;20312;-84
2022/12/02 09:34:31;;;;;;;;;;;;;;;9.56;63.09;101078.78;5052215;28;19917;-85
2022/12/02 09:37:15;;;;;;;;;;;;;;;9.40;64.17;101084.47;5058612;28;19917;-83
2022/12/02 09:40:00;;;;;;;;;;;;;;;9.48;63.70;101085.72;5053444;28;19916;-85
2022/12/02 09:42:45;;;;;;;;;;;;;;;9.58;64.14;101082.00;5040657;28;19917;-80
2022/12/02 09:45:29;;;;;;;;;;;;;;;9.73;64.00;101079.00;5034282;28;19917;-80
2022/12/02 09:48:14;;;;;;;;;;;;;;;9.78;63.94;101081.63;5046655;28;19917;-80
2022/12/02 09:50:59;;;;;;;;;;;;;;;9.79;64.72;101086.78;5027350;28;20381;-81
2022/12/02 09:53:45;;;;;;;;;;;;;;;9.98;63.29;101083.94;5022241;28;19925;-80
2022/12/02 09:56:30;;;;;;;;;;;;;;;10.00;63.13;101073.59;5040426;28;19917;-82
2022/12/02 09:59:15;;;;;;;;;;;;;;;10.06;64.27;101071.56;5045701;28;20343;-81
2022/12/02 10:02:00;;;;;;;;;;;;;;;9.80;64.63;101074.00;5036454;28;19916;-82
2022/12/02 10:04:44;;;;;;;;;;;;;;;9.86;64.50;101078.22;5040147;28;19917;-81
2022/12/02 10:07:29;;;;;;;;;;;;;;;10.02;64.17;101067.84;5049102;28;19917;-81
2022/12/02 10:10:17;;;;;;;;;;;;;;;10.04;63.78;101061.03;5031004;28;19921;-83
2022/12/02 10:13:01;;;;;;;;;;;;;;;10.05;64.12;101059.91;5032734;28;20385;-83
2022/12/02 10:15:46;;;;;;;;;;;;;;;10.07;64.20;101056.88;5046836;28;19936;-82
2022/12/02 10:18:32;;;;;;;;;;;;;;;10.11;64.13;101061.41;5041906;28;19925;-84
2022/12/02 10:21:17;;;;;;;;;;;;;;;10.10;64.13;101059.81;5050614;28;19916;-85
2022/12/02 10:24:03;;;;;;;;;;;;;;;10.09;64.09;101055.47;5048744;28;19917;-84
2022/12/02 10:26:49;;;;;;;;;;;;;;;10.02;63.63;101046.91;5045554;28;19917;-84
2022/12/02 10:29:34;;;;;;;;;;;;;;;9.93;64.04;101051.47;5043618;28;19917;-84
2022/12/02 10:32:26;;;;;;;;;;;;;;;9.85;64.50;101049.47;5038726;28;20405;-84
2022/12/02 10:35:11;;;;;;;;;;;;;;;9.82;65.47;101047.31;5060156;28;19917;-82
2022/12/02 10:37:55;;;;;;;;;;;;;;;9.91;64.85;101048.22;5046441;28;19917;-82
2022/12/02 10:40:40;;;;;;;;;;;;;;;9.79;64.89;101051.47;5044537;28;19917;-82
2022/12/02 10:43:24;;;;;;;;;;;;;;;9.77;65.24;101036.56;5040570;28;19917;-83
2022/12/02 10:46:13;;;;;;;;;;;;;;;9.78;65.05;101049.03;5042582;28;19916;-83
2022/12/02 10:49:16;;;;;;;;;;;;;;;9.69;65.00;101048.13;5047140;28;19917;-82
2022/12/02 10:52:10;;;;;;;;;;;;;;;9.78;65.24;101041.69;5052388;28;19921;-81
2022/12/02 10:54:55;;;;;;;;;;;;;;;9.74;66.12;101034.47;5044377;28;19920;-84
2022/12/02 10:57:41;;;;;;;;;;;;;;;9.55;66.68;101041.91;5045611;28;19917;-84
2022/12/02 11:00:29;;;;;;;;;;;;;;;9.73;66.73;101035.56;5036208;28;19917;-85
2022/12/02 11:03:13;;;;;;;;;;;;;;;9.71;66.16;101035.03;5031660;28;19920;-84
2022/12/02 11:05:58;;;;;;;;;;;;;;;9.65;66.45;101039.78;5054608;28;19921;-85
2022/12/02 11:08:44;;;;;;;;;;;;;;;9.54;67.50;101037.56;5040800;28;20312;-85
2022/12/02 11:11:29;;;;;;;;;;;;;;;9.50;67.50;101033.84;5045799;28;20397;-86
2022/12/02 11:14:33;;;;;;;;;;;;;;;9.54;67.49;101035.66;5044152;28;19917;-85
2022/12/02 11:17:39;;;;;;;;;;;;;;;9.55;67.48;101034.53;5068738;28;19917;-85
2022/12/02 11:20:34;;;;;;;;;;;;;;;9.69;67.84;101027.22;5057598;28;19916;-86
2022/12/02 11:23:21;;;;;;;;;;;;;;;9.92;66.72;101032.75;5055519;28;20368;-87
2022/12/02 11:26:07;;;;;;;;;;;;;;;10.00;66.74;101035.56;5056729;28;19920;-87
2022/12/02 11:29:14;;;;;;;;;;;;;;;10.12;66.32;101037.75;5056309;28;19917;-87
2022/12/02 11:32:18;;;;;;;;;;;;;;;10.25;65.23;101021.47;5059066;28;19920;-86
2022/12/02 11:35:13;;;;;;;;;;;;;;;10.23;65.36;101028.31;5045756;28;20385;-86
2022/12/02 11:38:17;;;;;;;;;;;;;;;10.33;65.27;101021.84;5059401;28;19917;-86
2022/12/02 11:41:02;;;;;;;;;;;;;;;10.38;65.15;101019.00;5048192;28;19917;-86
2022/12/02 11:43:47;;;;;;;;;;;;;;;10.53;65.30;101021.38;5039597;28;19916;-81
2022/12/02 11:46:39;;;;;;;;;;;;;;;10.64;64.10;101022.75;5031833;28;20317;-82
2022/12/02 11:49:38;;;;;;;;;;;;;;;10.74;63.23;101014.34;5041070;28;19916;-81
2022/12/02 11:52:24;;;;;;;;;;;;;;;10.85;63.28;101009.47;5038348;28;20301;-80
2022/12/02 11:55:11;;;;;;;;;;;;;;;10.90;62.40;101004.72;5022969;28;19917;-81
2022/12/02 11:57:57;;;;;;;;;;;;;;;10.90;62.72;100998.47;5035620;28;19917;-82
2022/12/02 12:00:58;;;;;;;;;;;;;;;11.01;62.56;101005.25;5038247;28;20305;-81
2022/12/02 12:03:44;;;;;;;;;;;;;;;10.95;61.93;101007.31;5046681;28;20300;-82
2022/12/02 12:06:33;;;;;;;;;;;;;;;10.90;62.25;101010.16;5054791;28;19916;-80
2022/12/02 12:09:18;;;;;;;;;;;;;;;10.90;61.89;100999.28;5042287;28;19917;-80
2022/12/02 12:12:13;;;;;;;;;;;;;;;10.98;62.13;101001.22;5034915;28;19921;-81
2022/12/02 12:15:03;;;;;;;;;;;;;;;11.09;61.81;100994.44;5046958;28;19916;-86
2022/12/02 12:17:48;;;;;;;;;;;;;;;11.12;61.09;100995.75;5050547;28;19917;-87
2022/12/02 12:20:32;;;;;;;;;;;;;;;11.31;60.26;100998.22;5056302;28;19917;-86
2022/12/02 12:23:31;;;;;;;;;;;;;;;11.44;59.36;101000.84;5047378;28;19917;-86
2022/12/02 12:26:29;;;;;;;;;;;;;;;11.76;59.37;101001.63;5054568;28;19916;-86
2022/12/02 12:29:14;;;;;;;;;;;;;;;11.87;58.12;100992.88;5048829;28;19920;-86
2022/12/02 12:31:59;;;;;;;;;;;;;;;12.05;57.57;100999.16;5056573;28;20377;-86
2022/12/02 12:34:43;;;;;;;;;;;;;;;12.09;56.76;100999.31;5056104;28;19917;-87
2022/12/02 12:37:28;;;;;;;;;;;;;;;11.89;57.54;100987.88;5057888;28;19917;-85
2022/12/02 12:40:12;;;;;;;;;;;;;;;11.76;58.29;100988.81;5055066;28;19917;-85
2022/12/02 12:42:57;;;;;;;;;;;;;;;11.70;58.59;100986.53;5054907;28;21730;-85
2022/12/02 12:45:41;;;;;;;;;;;;;;;11.61;57.43;100978.31;5034574;23;19930;-78
2022/12/02 12:48:26;;;;;;;;;;;;;;;11.53;58.61;100982.63;4999271;28;20441;-78
2022/12/02 12:51:10;;;;;;;;;;;;;;;11.52;57.69;100983.75;4996747;28;19918;-78
2022/12/02 12:53:54;;;;;;;;;;;;;;;11.59;58.60;100975.91;4995231;28;19922;-78
2022/12/02 12:56:39;;;;;;;;;;;;;;;11.57;58.14;100972.72;4974814;28;19918;-78
2022/12/02 12:59:23;;;;;;;;;;;;;;;11.65;57.59;100965.69;4992890;28;19918;-79
2022/12/02 13:02:08;;;;;;;;;;;;;;;11.64;58.84;100969.50;4994693;28;20390;-78
2022/12/02 13:04:52;;;;;;;;;;;;;;;11.48;58.55;100974.59;4990465;28;20322;-78
2022/12/02 13:07:36;;;;;;;;;;;;;;;11.45;58.31;100971.69;4999349;28;19925;-78
2022/12/02 13:10:21;;;;;;;;;;;;;;;11.32;58.73;100967.97;4986843;28;19918;-79
2022/12/02 13:13:05;;;;;;;;;;;;;;;11.37;58.76;100970.56;4988209;28;19926;-78
2022/12/02 13:15:50;;;;;;;;;;;;;;;11.25;58.81;100969.53;4983303;28;19917;-78
2022/12/02 13:18:34;;;;;;;;;;;;;;;11.16;59.41;100972.22;4999222;28;19917;-78
2022/12/02 13:21:18;;;;;;;;;;;;;;;11.05;60.26;100968.97;4989466;28;19980;-79
2022/12/02 13:24:04;;;;;;;;;;;;;;;11.07;60.17;100974.88;4990437;28;19918;-78
2022/12/02 13:26:48;;;;;;;;;;;;;;;11.00;61.52;100971.81;4993610;28;19918;-78
2022/12/02 13:29:33;;;;;;;;;;;;;;;11.00;61.41;100977.25;4993257;28;19918;-79
2022/12/02 13:32:17;;;;;;;;;;;;;;;10.92;60.77;100974.50;4996782;28;20293;-78
2022/12/02 13:35:02;;;;;;;;;;;;;;;11.00;61.52;100971.81;4994123;28;19918;-78
2022/12/02 13:37:47;;;;;;;;;;;;;;;10.96;60.84;100976.28;4993746;28;20307;-78
2022/12/02 13:40:31;;;;;;;;;;;;;;;10.70;63.50;100973.38;4996868;28;19918;-78
2022/12/02 13:43:15;;;;;;;;;;;;;;;10.84;62.10;100976.03;4995585;28;19918;-78
2022/12/02 13:46:00;;;;;;;;;;;;;;;10.50;63.36;100978.50;4993499;28;19918;-78
2022/12/02 13:48:44;;;;;;;;;;;;;;;10.93;61.89;100981.50;4993235;28;20379;-79
2022/12/02 13:51:29;;;;;;;;;;;;;;;10.82;62.21;100972.78;4995496;28;20317;-78
2022/12/02 13:54:13;;;;;;;;;;;;;;;10.69;63.13;100979.94;4993642;28;19941;-78
2022/12/02 13:56:58;;;;;;;;;;;;;;;10.63;59.69;100985.78;4992350;28;19937;-78
2022/12/02 13:59:42;;;;;;;;;;;;;;;10.80;60.32;100990.56;4993309;28;19918;-78
2022/12/02 14:02:26;;;;;;;;;;;;;;;10.89;58.32;100984.06;4994164;28;19922;-78
2022/12/02 14:05:11;;;;;;;;;;;;;;;11.07;58.24;100982.25;4986262;28;19921;-78
2022/12/02 14:07:55;;;;;;;;;;;;;;;11.08;57.35;100983.84;4982250;28;19926;-78
2022/12/02 14:10:40;;;;;;;;;;;;;;;11.37;58.92;100986.09;4995703;28;19918;-80
2022/12/02 14:13:24;;;;;;;;;;;;;;;11.96;57.02;100988.22;5003195;28;19922;-80
2022/12/02 14:16:09;;;;;;;;;;;;;;;12.00;55.24;100981.03;4996600;28;19918;-80